33 Region — 2JBG9 — position and weather

sailwx.info

Track history (hours):
 
Tides and Currents Weather Stations Pressure Air Temp Water Temp Dewpoint Dewpoint Depression Visibility Wind Speed Wind Dir Waves Ship Positions

33 Region

Last reported at 2018-Apr-23 06:57 UTC. Time now 2018-Jun-23 21:45 UTC.
Position N 37°59' E 022°53'.
Warning: this ship's position is months out of date.

Type: Pleasure craft. MMSI: 235114481.

Date/timePositionNaut miles runAvg speedWind from/ knotsBaromVisibWave heightAir tempDewpointWater temp
2018-Apr-23 06:57N 37°59' E 022°53'3 6.1
2018-Apr-23 06:29N 37°59' E 022°56'5 3.9
2018-Apr-23 05:15N 37°55' E 023°00'0 1.3
2018-Apr-23 04:58N 37°55' E 023°01'0 0.7
2018-Apr-23 04:30N 37°55' E 023°01'0 0.2
2018-Apr-23 03:41N 37°55' E 023°01'0 0.0
2018-Apr-23 03:23N 37°55' E 023°01'0 0.0
2018-Apr-23 02:56N 37°55' E 023°01'0 0.0
2018-Apr-23 02:14N 37°55' E 023°01'0 0.0
2018-Apr-23 02:00N 37°55' E 023°01'0 0.0
2018-Apr-23 01:26N 37°55' E 023°01'0 0.0
2018-Apr-23 00:56N 37°55' E 023°01'0 0.0
2018-Apr-23 00:30N 37°55' E 023°01'0 0.0
2018-Apr-22 23:56N 37°55' E 023°01'0 0.0
2018-Apr-22 23:23N 37°55' E 023°01'0 0.0
2018-Apr-22 23:00N 37°55' E 023°01'0 0.0
2018-Apr-22 22:30N 37°55' E 023°01'0 0.0
2018-Apr-22 22:00N 37°55' E 023°01'0 0.0
2018-Apr-22 21:24N 37°55' E 023°01'0 0.0
2018-Apr-22 20:59N 37°55' E 023°01'0 0.0
2018-Apr-22 20:30N 37°55' E 023°01'0 0.0
2018-Apr-22 19:59N 37°55' E 023°01'0 0.0
2018-Apr-22 19:30N 37°55' E 023°01'0 0.0
2018-Apr-22 19:00N 37°55' E 023°01'0 0.0
2018-Apr-22 18:26N 37°55' E 023°01'0 0.0
2018-Apr-22 18:00N 37°55' E 023°01'0 0.0
2018-Apr-22 17:30N 37°55' E 023°01'0 0.0
2018-Apr-22 16:59N 37°55' E 023°01'0 0.0
2018-Apr-22 16:30N 37°55' E 023°01'0 0.0
2018-Apr-22 16:00N 37°55' E 023°01'0 0.0
2018-Apr-22 15:17N 37°55' E 023°01'0 0.2
2018-Apr-22 15:00N 37°55' E 023°01'2 4.7
2018-Apr-22 14:30N 37°54' E 023°03'3 6.5
2018-Apr-22 14:01N 37°52' E 023°06'2 4.5
2018-Apr-22 13:30N 37°50' E 023°09'2 3.2
2018-Apr-22 13:01N 37°49' E 023°10'19 4.8
2018-Apr-22 08:57N 37°38' E 023°30'2 4.4
2018-Apr-22 08:30N 37°39' E 023°32'2 5.1
2018-Apr-22 08:00N 37°39' E 023°35'1 2.9
2018-Apr-22 07:31N 37°38' E 023°37'  
Track history (hours):
 
Tides and Currents Weather Stations Pressure Air Temp Water Temp Dewpoint Dewpoint Depression Visibility Wind Speed Wind Dir Waves Ship Positions

33 Region

Last reported at 2018-Apr-23 06:57 UTC. Time now 2018-Jun-23 21:45 UTC.
Position N 37°59' E 022°53'.
Warning: this ship's position is months out of date.

Type: Pleasure craft. MMSI: 235114481.

Date/timePositionNaut miles runAvg speedWind from/ knotsBaromVisibWave heightAir tempDewpointWater temp
2018-Apr-23 06:57N 37°59' E 022°53'3 6.1
2018-Apr-23 06:29N 37°59' E 022°56'5 3.9
2018-Apr-23 05:15N 37°55' E 023°00'0 1.3
2018-Apr-23 04:58N 37°55' E 023°01'0 0.7
2018-Apr-23 04:30N 37°55' E 023°01'0 0.2
2018-Apr-23 03:41N 37°55' E 023°01'0 0.0
2018-Apr-23 03:23N 37°55' E 023°01'0 0.0
2018-Apr-23 02:56N 37°55' E 023°01'0 0.0
2018-Apr-23 02:14N 37°55' E 023°01'0 0.0
2018-Apr-23 02:00N 37°55' E 023°01'0 0.0
2018-Apr-23 01:26N 37°55' E 023°01'0 0.0
2018-Apr-23 00:56N 37°55' E 023°01'0 0.0
2018-Apr-23 00:30N 37°55' E 023°01'0 0.0
2018-Apr-22 23:56N 37°55' E 023°01'0 0.0
2018-Apr-22 23:23N 37°55' E 023°01'0 0.0
2018-Apr-22 23:00N 37°55' E 023°01'0 0.0
2018-Apr-22 22:30N 37°55' E 023°01'0 0.0
2018-Apr-22 22:00N 37°55' E 023°01'0 0.0
2018-Apr-22 21:24N 37°55' E 023°01'0 0.0
2018-Apr-22 20:59N 37°55' E 023°01'0 0.0
2018-Apr-22 20:30N 37°55' E 023°01'0 0.0
2018-Apr-22 19:59N 37°55' E 023°01'0 0.0
2018-Apr-22 19:30N 37°55' E 023°01'0 0.0
2018-Apr-22 19:00N 37°55' E 023°01'0 0.0
2018-Apr-22 18:26N 37°55' E 023°01'0 0.0
2018-Apr-22 18:00N 37°55' E 023°01'0 0.0
2018-Apr-22 17:30N 37°55' E 023°01'0 0.0
2018-Apr-22 16:59N 37°55' E 023°01'0 0.0
2018-Apr-22 16:30N 37°55' E 023°01'0 0.0
2018-Apr-22 16:00N 37°55' E 023°01'0 0.0
2018-Apr-22 15:17N 37°55' E 023°01'0 0.2
2018-Apr-22 15:00N 37°55' E 023°01'2 4.7
2018-Apr-22 14:30N 37°54' E 023°03'3 6.5
2018-Apr-22 14:01N 37°52' E 023°06'2 4.5
2018-Apr-22 13:30N 37°50' E 023°09'2 3.2
2018-Apr-22 13:01N 37°49' E 023°10'19 4.8
2018-Apr-22 08:57N 37°38' E 023°30'2 4.4
2018-Apr-22 08:30N 37°39' E 023°32'2 5.1
2018-Apr-22 08:00N 37°39' E 023°35'1 2.9
2018-Apr-22 07:31N 37°38' E 023°37'  

Dump ship's entire track history